Time;durP1;ratioP1;P1;durP2;ratioP2;P2;SDS_P1;SDS_P2;PMS_P1;PMS_P2;Temp;Humidity;BMP_temperature;BMP_pressure;BME280_temperature;BME280_humidity;BME280_pressure;Samples;Min_cycle;Max_cycle;Signal;HPM_P1;HPM_P2
2022/11/04 00:02:31;;;;;;;3.40;2.37;;;;;;;10.49;83.29;100047.19;6051358;29;20638;-78
2022/11/04 00:05:52;;;;;;;4.80;2.77;;;;;;;10.62;82.81;100038.69;6053123;29;20275;-78
2022/11/04 00:09:17;;;;;;;3.43;2.73;;;;;;;10.48;83.27;100026.59;6056619;29;20241;-78
2022/11/04 00:12:37;;;;;;;3.30;2.00;;;;;;;10.59;83.28;100026.38;6058147;29;20237;-78
2022/11/04 00:30:44;;;;;;;3.20;2.67;;;;;;;10.70;83.81;99996.44;6026157;29;20252;-78
2022/11/04 00:34:05;;;;;;;2.67;2.47;;;;;;;10.59;83.60;99995.88;6056168;29;20264;-78
2022/11/04 00:37:26;;;;;;;6.03;4.33;;;;;;;10.51;84.38;100003.91;6049862;29;20550;-77
2022/11/04 00:40:47;;;;;;;8.87;5.40;;;;;;;10.38;85.64;100029.41;6059881;29;20229;-78
2022/11/04 00:44:08;;;;;;;4.77;2.00;;;;;;;10.41;85.24;100022.84;6057890;29;20230;-78
2022/11/04 00:47:29;;;;;;;3.57;2.13;;;;;;;10.48;85.33;100028.44;6054064;29;20234;-78
2022/11/04 00:50:51;;;;;;;3.63;2.43;;;;;;;10.45;85.78;100008.06;6065897;29;20248;-78
2022/11/04 00:54:11;;;;;;;7.97;2.87;;;;;;;10.58;85.21;100007.63;6060278;29;20250;-78
2022/11/04 00:57:32;;;;;;;2.73;2.53;;;;;;;10.44;86.28;100001.84;6063835;29;20276;-78
2022/11/04 01:00:53;;;;;;;4.07;1.93;;;;;;;10.50;85.61;100005.75;6058252;29;20244;-78
2022/11/04 01:04:14;;;;;;;4.30;1.83;;;;;;;10.43;86.14;100001.97;6057469;29;20229;-77
2022/11/04 01:07:37;;;;;;;4.63;2.77;;;;;;;10.41;87.16;100006.66;6064276;29;20608;-78
2022/11/04 01:11:01;;;;;;;3.23;2.47;;;;;;;10.43;87.32;99992.03;6056947;29;20570;-76
2022/11/04 01:14:23;;;;;;;3.23;2.30;;;;;;;10.55;86.94;99983.72;6058527;29;20229;-77
2022/11/04 01:17:43;;;;;;;2.17;1.97;;;;;;;10.57;86.17;99982.56;6053022;29;20264;-77
2022/11/04 01:21:07;;;;;;;2.00;1.80;;;;;;;10.48;87.17;99985.34;6065726;29;20260;-76
2022/11/04 01:24:30;;;;;;;5.00;2.23;;;;;;;10.50;87.54;99978.78;6058518;29;20229;-78
2022/11/04 01:27:51;;;;;;;1.97;1.80;;;;;;;10.56;86.86;99977.31;6050853;29;20383;-77
2022/11/04 01:31:14;;;;;;;3.67;3.40;;;;;;;10.51;86.86;99972.41;6063964;29;20240;-77
2022/11/04 01:34:34;;;;;;;2.40;2.03;;;;;;;10.44;87.61;99974.03;6061229;29;20237;-77
2022/11/04 01:37:55;;;;;;;2.13;2.03;;;;;;;10.44;87.50;99977.59;6047734;29;20320;-74
2022/11/04 01:41:20;;;;;;;5.70;2.57;;;;;;;10.44;87.69;99976.72;6054053;29;20241;-74
2022/11/04 01:44:59;;;;;;;4.97;3.23;;;;;;;10.52;88.10;99981.31;6058844;29;20484;-75
2022/11/04 01:48:25;;;;;;;2.43;2.23;;;;;;;10.57;87.67;99973.63;6044571;29;20237;-75
2022/11/04 01:51:48;;;;;;;4.43;2.70;;;;;;;10.50;87.97;99975.25;6055568;29;20244;-75
2022/11/04 01:55:14;;;;;;;3.47;2.47;;;;;;;10.53;88.29;99973.09;6061563;29;20323;-75
2022/11/04 01:58:36;;;;;;;3.17;2.97;;;;;;;10.56;88.31;99972.75;6056299;29;20514;-78
2022/11/04 02:01:57;;;;;;;3.90;2.30;;;;;;;10.69;87.53;99967.81;6058029;29;20230;-77
2022/11/04 02:05:20;;;;;;;4.73;2.87;;;;;;;10.65;88.01;99946.72;6054809;29;20245;-77
2022/11/04 02:08:42;;;;;;;2.63;2.30;;;;;;;10.73;87.76;99939.53;6058690;29;20236;-78
2022/11/04 02:15:54;;;;;;;3.27;2.17;;;;;;;10.70;87.43;99952.50;6051924;29;20299;-76
2022/11/04 02:19:36;;;;;;;2.73;2.53;;;;;;;10.60;88.10;99968.75;6057584;29;20252;-77
2022/11/04 02:23:35;;;;;;;2.67;2.47;;;;;;;10.59;88.05;99964.38;6056364;29;20232;-77
2022/11/04 02:27:26;;;;;;;3.30;3.10;;;;;;;10.60;88.80;99957.97;6062634;29;20264;-76
2022/11/04 02:30:57;;;;;;;6.80;2.37;;;;;;;10.69;88.23;99962.41;6055119;29;20360;-77
2022/11/04 02:34:21;;;;;;;3.80;1.93;;;;;;;10.64;88.44;99951.25;6047893;29;20311;-77
2022/11/04 02:37:51;;;;;;;2.00;1.77;;;;;;;10.66;88.81;99951.13;6055081;29;20670;-77
2022/11/04 02:41:18;;;;;;;5.80;2.40;;;;;;;10.82;88.20;99946.66;6070952;29;20256;-77
2022/11/04 02:44:46;;;;;;;3.77;2.80;;;;;;;10.81;88.74;99952.19;6045082;29;20776;-77
2022/11/04 02:48:16;;;;;;;2.73;2.37;;;;;;;10.85;88.92;99959.81;6057500;29;20311;-78
2022/11/04 02:51:43;;;;;;;4.63;2.50;;;;;;;10.88;88.93;99962.19;6063858;29;20283;-77
2022/11/04 02:55:09;;;;;;;3.63;2.87;;;;;;;10.90;89.35;99959.31;6048187;29;20237;-77
2022/11/04 02:58:35;;;;;;;2.53;2.33;;;;;;;10.83;90.05;99969.91;6056975;29;20309;-77
2022/11/04 03:01:58;;;;;;;3.10;1.97;;;;;;;10.84;90.47;99973.44;6052349;29;20237;-77
2022/11/04 03:05:26;;;;;;;5.10;2.47;;;;;;;10.81;90.68;99981.84;6056420;29;20237;-78
2022/11/04 03:08:51;;;;;;;3.77;2.23;;;;;;;10.79;91.04;99979.31;6057889;29;20236;-77
2022/11/04 03:12:15;;;;;;;3.93;2.70;;;;;;;10.86;91.09;99975.00;6052886;29;20261;-77
2022/11/04 03:15:39;;;;;;;2.70;2.23;;;;;;;10.89;91.25;99963.03;6056845;29;20229;-77
2022/11/04 03:19:06;;;;;;;4.83;2.57;;;;;;;10.94;91.73;99958.00;6054864;29;20237;-77
2022/11/04 03:22:30;;;;;;;4.93;2.97;;;;;;;10.93;92.06;99946.34;6042734;29;20608;-78
2022/11/04 03:25:55;;;;;;;2.73;2.30;;;;;;;10.96;92.35;99951.44;6063926;29;20242;-77
2022/11/04 03:29:25;;;;;;;1.57;1.47;;;;;;;11.04;93.08;99954.16;6058114;29;20232;-76
2022/11/04 03:32:56;;;;;;;2.20;1.77;;;;;;;11.04;93.24;99964.09;6047472;29;20722;-77
2022/11/04 03:36:18;;;;;;;2.63;2.17;;;;;;;11.09;93.74;99984.22;6058046;29;20291;-77
2022/11/04 03:39:41;;;;;;;2.60;2.27;;;;;;;11.07;93.69;99983.53;6044379;29;20233;-76
2022/11/04 03:43:09;;;;;;;3.67;2.30;;;;;;;11.06;93.55;99972.88;6043597;29;20244;-76
2022/11/04 03:46:30;;;;;;;2.13;1.93;;;;;;;11.09;93.99;99973.44;6064531;29;20240;-76
2022/11/04 03:49:57;;;;;;;3.77;1.90;;;;;;;11.22;93.51;99976.50;6048420;29;20237;-78
2022/11/04 03:53:21;;;;;;;2.17;2.00;;;;;;;11.14;94.40;99959.44;6049034;29;20252;-77
2022/11/04 03:57:00;;;;;;;2.33;1.80;;;;;;;11.09;94.56;99954.53;6060877;29;20229;-76
2022/11/04 04:00:23;;;;;;;2.80;2.17;;;;;;;11.15;94.39;99972.78;6051733;29;20233;-77
2022/11/04 04:03:51;;;;;;;2.27;1.97;;;;;;;11.11;95.15;99973.25;6050763;29;20323;-76
2022/11/04 04:07:17;;;;;;;3.67;1.80;;;;;;;11.09;95.51;99976.13;6055780;29;20230;-77
2022/11/04 04:10:44;;;;;;;2.00;1.90;;;;;;;11.15;94.13;99978.16;6056066;29;20233;-77
2022/11/04 04:14:37;;;;;;;4.10;2.60;;;;;;;11.16;94.58;99971.75;6058939;29;20233;-76
2022/11/04 04:18:00;;;;;;;1.93;1.60;;;;;;;11.18;94.78;99977.81;6047367;29;20319;-77
2022/11/04 04:21:26;;;;;;;2.60;2.40;;;;;;;11.21;94.13;99988.31;6055181;29;20252;-77
2022/11/04 04:28:28;;;;;;;3.13;2.10;;;;;;;11.27;93.67;100011.09;6047696;29;20504;-74
2022/11/04 04:31:56;;;;;;;2.63;2.13;;;;;;;11.31;93.66;100014.28;6056160;29;20248;-74
2022/11/04 04:35:42;;;;;;;4.30;1.80;;;;;;;11.34;92.13;100024.78;6050604;29;20228;-76
2022/11/04 04:46:24;;;;;;;3.43;2.93;;;;;;;11.39;90.12;100044.88;6065620;29;20229;-75
2022/11/04 04:49:50;;;;;;;1.90;1.70;;;;;;;11.45;87.23;100035.28;6062656;29;20320;-73
2022/11/04 04:53:12;;;;;;;1.77;1.20;;;;;;;11.52;85.85;100047.97;6050578;29;20256;-77
2022/11/04 04:56:33;;;;;;;2.23;1.53;;;;;;;11.54;84.60;100066.69;6061213;29;20233;-74
2022/11/04 04:59:54;;;;;;;1.73;1.63;;;;;;;11.57;83.75;100050.19;6047444;29;20909;-78
2022/11/04 05:03:15;;;;;;;1.20;1.10;;;;;;;11.60;83.02;100061.50;6049125;29;26649;-75
2022/11/04 05:06:37;;;;;;;2.00;1.10;;;;;;;11.64;81.67;100067.44;6065781;29;20233;-73
2022/11/04 05:09:58;;;;;;;1.77;1.00;;;;;;;11.59;81.26;100080.56;6039475;29;20234;-78
2022/11/04 05:13:28;;;;;;;1.10;1.00;;;;;;;11.59;81.12;100081.41;6057013;29;20237;-78
2022/11/04 05:16:49;;;;;;;2.73;1.37;;;;;;;11.59;81.47;100088.66;6066509;29;20695;-77
2022/11/04 05:20:11;;;;;;;0.80;0.80;;;;;;;11.58;81.03;100093.19;6062928;29;20269;-79
2022/11/04 05:23:34;;;;;;;0.73;0.73;;;;;;;11.57;81.27;100086.13;6053702;29;20566;-76
2022/11/04 05:26:55;;;;;;;0.90;0.80;;;;;;;11.54;80.81;100099.94;6059314;29;20237;-75
2022/11/04 05:30:16;;;;;;;0.80;0.73;;;;;;;11.56;81.01;100102.47;6047887;29;20226;-76
2022/11/04 05:33:37;;;;;;;1.10;1.07;;;;;;;11.55;79.86;100098.94;6061803;29;20299;-77
2022/11/04 05:36:59;;;;;;;1.23;0.87;;;;;;;11.51;80.90;100108.38;6060149;29;20251;-78
2022/11/04 05:40:22;;;;;;;1.23;0.90;;;;;;;11.53;79.81;100117.16;6056153;29;20595;-78
2022/11/04 05:43:43;;;;;;;1.10;1.00;;;;;;;11.53;81.01;100122.56;6048819;29;20225;-77
2022/11/04 05:47:03;;;;;;;1.07;0.93;;;;;;;11.52;80.64;100126.25;6057288;29;20709;-78
2022/11/04 05:50:24;;;;;;;0.87;0.87;;;;;;;11.50;81.30;100132.81;6056104;29;20513;-76
2022/11/04 05:53:45;;;;;;;1.50;1.40;;;;;;;11.48;81.20;100134.81;6045081;29;21305;-78
2022/11/04 05:57:09;;;;;;;1.03;1.03;;;;;;;11.46;81.09;100134.13;6058886;29;20233;-76
2022/11/04 06:00:29;;;;;;;1.40;1.30;;;;;;;11.45;81.34;100135.16;6047508;29;20597;-73
2022/11/04 06:03:50;;;;;;;4.03;1.23;;;;;;;11.45;81.10;100154.91;6054919;29;20232;-77
2022/11/04 06:07:12;;;;;;;0.87;0.87;;;;;;;11.41;81.09;100158.06;6060932;29;20261;-78
2022/11/04 06:10:32;;;;;;;1.43;1.20;;;;;;;11.39;82.14;100162.78;6056169;29;20824;-77
2022/11/04 06:13:56;;;;;;;1.00;1.00;;;;;;;11.41;81.60;100174.25;6055955;29;20326;-78
2022/11/04 06:17:19;;;;;;;1.40;1.30;;;;;;;11.41;81.10;100161.59;6043744;29;20502;-75
2022/11/04 06:20:40;;;;;;;2.03;1.20;;;;;;;11.40;80.77;100173.41;6040411;29;20324;-77
2022/11/04 06:24:01;;;;;;;1.80;1.70;;;;;;;11.40;81.54;100169.84;6048260;29;20631;-75
2022/11/04 06:27:22;;;;;;;0.90;0.90;;;;;;;11.43;81.21;100178.47;6046709;29;20769;-72
2022/11/04 06:30:44;;;;;;;1.40;1.27;;;;;;;11.41;81.14;100185.06;6060019;29;20518;-71
2022/11/04 06:34:05;;;;;;;1.67;1.40;;;;;;;11.38;81.30;100190.75;6054371;29;20787;-73
2022/11/04 06:37:26;;;;;;;1.30;1.20;;;;;;;11.34;82.02;100205.56;6051859;29;20515;-75
2022/11/04 06:40:47;;;;;;;4.10;1.47;;;;;;;11.30;82.05;100210.44;6063351;29;20225;-75
2022/11/04 06:44:08;;;;;;;1.23;1.00;;;;;;;11.26;82.68;100204.50;6055717;29;20513;-71
2022/11/04 06:47:31;;;;;;;3.93;1.70;;;;;;;11.26;82.51;100200.97;6037846;29;20237;-73
2022/11/04 06:50:52;;;;;;;1.50;1.40;;;;;;;11.21;82.58;100206.84;6059337;29;22049;-68
2022/11/04 06:54:14;;;;;;;3.67;1.77;;;;;;;11.19;82.34;100213.38;6051556;29;20232;-71
2022/11/04 06:57:35;;;;;;;1.90;1.60;;;;;;;11.17;82.25;100215.41;6038697;29;20233;-71
2022/11/04 07:00:55;;;;;;;2.57;1.83;;;;;;;11.16;82.29;100217.25;6047172;29;20702;-69
2022/11/04 07:04:18;;;;;;;3.97;2.90;;;;;;;11.16;82.46;100222.63;6040732;29;20245;-70
2022/11/04 07:07:39;;;;;;;4.30;1.60;;;;;;;11.20;81.82;100221.31;6049445;29;20233;-69
2022/11/04 07:11:00;;;;;;;4.40;2.17;;;;;;;11.23;82.53;100234.50;6062081;29;20640;-76
2022/11/04 07:14:20;;;;;;;15.37;1.50;;;;;;;11.31;82.03;100240.94;6058295;29;20249;-68
2022/11/04 07:17:43;;;;;;;3.27;2.13;;;;;;;11.43;82.04;100247.81;6038592;29;20261;-68
2022/11/04 07:21:06;;;;;;;3.20;1.87;;;;;;;11.40;81.47;100254.38;6045569;29;20237;-70
2022/11/04 07:24:26;;;;;;;10.13;2.17;;;;;;;11.33;nan;100264.09;6057700;29;20248;-71
2022/11/04 07:27:47;;;;;;;2.03;1.83;;;;;;;11.27;81.50;100270.97;6043474;29;20240;-72
2022/11/04 07:31:10;;;;;;;2.00;1.80;;;;;;;11.23;81.56;100272.28;6054174;29;20238;-74
2022/11/04 07:34:31;;;;;;;2.10;1.90;;;;;;;11.18;81.98;100289.94;6059828;29;20267;-71
2022/11/04 07:37:54;;;;;;;1.70;1.60;;;;;;;11.19;82.32;100287.09;6046546;29;20232;-73
2022/11/04 07:41:17;;;;;;;2.03;1.80;;;;;;;11.19;82.58;100300.56;6059961;29;20244;-72
2022/11/04 07:44:38;;;;;;;3.13;1.97;;;;;;;11.18;81.82;100304.25;6038178;29;20689;-70
2022/11/04 07:47:59;;;;;;;3.33;2.23;;;;;;;11.19;82.45;100310.50;6042439;29;20233;-72
2022/11/04 07:51:21;;;;;;;2.40;1.97;;;;;;;11.26;81.94;100298.94;6045945;29;20229;-75
2022/11/04 07:54:43;;;;;;;3.03;2.80;;;;;;;11.34;82.03;100295.47;6055668;29;20323;-77
2022/11/04 07:58:04;;;;;;;1.60;1.50;;;;;;;11.27;82.01;100294.41;6046865;29;20249;-74
2022/11/04 08:01:25;;;;;;;3.27;2.03;;;;;;;11.27;80.87;100300.66;6048379;29;20653;-75
2022/11/04 08:04:45;;;;;;;6.57;2.63;;;;;;;11.30;81.45;100312.13;6049131;29;20238;-73
2022/11/04 08:08:07;;;;;;;5.30;2.60;;;;;;;11.34;81.81;100321.63;6048819;29;20331;-75
2022/11/04 08:11:29;;;;;;;2.43;2.23;;;;;;;11.29;82.03;100313.97;6056487;29;20623;-81
2022/11/04 08:14:50;;;;;;;1.80;1.70;;;;;;;11.26;81.84;100311.59;6061828;29;20529;-70
2022/11/04 08:18:11;;;;;;;2.33;2.10;;;;;;;11.31;81.60;100320.06;6047350;29;20229;-70
2022/11/04 08:21:33;;;;;;;2.37;2.03;;;;;;;11.26;81.07;100335.88;6060610;29;20241;-75
2022/11/04 08:24:54;;;;;;;4.60;2.53;;;;;;;11.24;81.19;100336.00;6048453;29;20240;-71
2022/11/04 08:28:17;;;;;;;2.90;2.57;;;;;;;11.20;81.61;100336.50;6041756;29;21059;-75
2022/11/04 08:31:38;;;;;;;2.77;2.00;;;;;;;11.20;81.10;100333.81;6050965;29;20242;-71
2022/11/04 08:35:00;;;;;;;2.50;1.93;;;;;;;11.33;80.39;100328.84;6067466;29;20232;-71
2022/11/04 08:38:21;;;;;;;4.37;2.67;;;;;;;11.29;81.34;100338.25;6053656;29;20264;-72
2022/11/04 08:41:44;;;;;;;4.13;2.53;;;;;;;11.36;81.32;100335.78;6055602;29;20237;-73
2022/11/04 08:45:07;;;;;;;1.97;1.87;;;;;;;11.44;80.71;100342.13;6042619;29;20586;-71
2022/11/04 08:48:28;;;;;;;2.83;1.57;;;;;;;11.68;79.67;100336.94;6044828;29;20245;-71
2022/11/04 08:51:55;;;;;;;2.00;1.90;;;;;;;11.78;78.87;100339.56;6058615;29;20244;-69
2022/11/04 08:55:16;;;;;;;2.00;1.70;;;;;;;12.16;77.50;100336.44;6060743;29;20272;-71
2022/11/04 08:58:37;;;;;;;4.00;2.00;;;;;;;12.10;77.27;100342.50;6057171;29;20236;-71
2022/11/04 09:01:59;;;;;;;2.10;1.90;;;;;;;11.98;77.18;100341.06;6056373;29;20237;-73
2022/11/04 09:05:19;;;;;;;4.50;2.80;;;;;;;11.80;77.64;100348.38;6044291;29;22389;-73
2022/11/04 09:08:42;;;;;;;2.00;1.90;;;;;;;11.51;77.87;100355.84;6048387;29;20513;-70
2022/11/04 09:12:02;;;;;;;1.77;1.67;;;;;;;11.43;79.08;100362.00;6057029;29;20252;-74
2022/11/04 09:15:23;;;;;;;2.30;2.10;;;;;;;11.71;78.01;100360.97;6051588;29;20237;-73
2022/11/04 09:18:45;;;;;;;3.47;2.77;;;;;;;12.04;76.75;100356.63;6055002;29;22357;-72
2022/11/04 09:22:06;;;;;;;1.90;1.80;;;;;;;13.16;72.27;100363.66;6062698;29;20240;-72
2022/11/04 09:25:27;;;;;;;2.90;1.83;;;;;;;13.90;69.13;100366.25;6052308;29;20613;-71
2022/11/04 09:28:48;;;;;;;1.60;1.50;;;;;;;14.20;67.72;100374.56;6043779;29;20248;-72
2022/11/04 09:32:09;;;;;;;4.50;2.40;;;;;;;12.56;73.74;100398.00;6050759;29;20253;-74
2022/11/04 09:35:31;;;;;;;3.63;1.40;;;;;;;12.06;75.47;100391.63;6056915;29;20240;-76
2022/11/04 09:38:53;;;;;;;4.10;1.33;;;;;;;11.99;75.93;100386.00;6058853;29;20256;-75
2022/11/04 09:42:27;;;;;;;2.37;1.43;;;;;;;11.90;76.17;100393.19;6058066;29;20241;-74
2022/11/04 09:45:48;;;;;;;1.07;0.97;;;;;;;11.98;75.98;100397.78;6053145;29;20302;-74
2022/11/04 09:49:12;;;;;;;2.23;1.40;;;;;;;11.75;76.41;100415.50;6061821;29;20241;-72
2022/11/04 09:52:38;;;;;;;1.60;1.20;;;;;;;12.08;75.79;100413.94;6039027;29;20238;-73
2022/11/04 09:56:02;;;;;;;1.80;1.70;;;;;;;12.57;75.07;100411.41;6068912;29;20241;-70
2022/11/04 09:59:28;;;;;;;1.57;1.47;;;;;;;15.05;65.00;100408.25;6056665;29;20232;-70
2022/11/04 10:02:59;;;;;;;3.50;2.17;;;;;;;13.97;67.39;100410.66;6035488;29;20253;-74
2022/11/04 10:06:32;;;;;;;1.70;1.60;;;;;;;12.87;71.75;100423.53;6054500;29;20876;-73
2022/11/04 10:10:02;;;;;;;2.67;1.90;;;;;;;13.17;71.47;100423.03;6045863;29;20248;-76
2022/11/04 10:13:31;;;;;;;1.40;1.30;;;;;;;12.81;72.85;100424.19;6053382;29;20248;-71
2022/11/04 10:17:06;;;;;;;2.13;1.77;;;;;;;12.64;73.28;100423.25;6053054;29;20607;-71
2022/11/04 10:20:40;;;;;;;2.53;1.80;;;;;;;12.78;72.15;100419.09;6046363;29;20260;-72
2022/11/04 10:24:12;;;;;;;1.57;1.17;;;;;;;12.71;72.53;100418.91;6038693;29;20240;-77
2022/11/04 10:27:37;;;;;;;2.40;1.57;;;;;;;13.26;71.05;100405.81;6042065;29;20604;-78
2022/11/04 10:31:00;;;;;;;4.33;2.10;;;;;;;13.66;68.57;100404.19;6050479;29;20237;-74
2022/11/04 10:34:32;;;;;;;2.67;1.60;;;;;;;13.96;68.23;100409.78;6038226;29;20265;-79
2022/11/04 10:37:55;;;;;;;1.43;1.33;;;;;;;15.08;63.78;100397.03;6043601;29;20295;-73
2022/11/04 10:41:25;;;;;;;1.83;1.73;;;;;;;13.91;67.16;100392.34;6060407;29;20273;-73
2022/11/04 10:44:50;;;;;;;1.87;1.73;;;;;;;14.31;66.62;100387.75;6061031;29;20567;-72
2022/11/04 10:48:19;;;;;;;3.27;1.40;;;;;;;14.29;66.52;100394.38;6049955;29;20240;-73
2022/11/04 10:51:40;;;;;;;1.33;1.23;;;;;;;15.20;63.80;100379.31;6052359;29;20660;-71
2022/11/04 10:55:01;;;;;;;1.57;1.47;;;;;;;13.13;70.29;100399.16;6035612;29;20593;-70
2022/11/04 10:58:27;;;;;;;2.60;1.60;;;;;;;13.43;69.41;100409.41;6053740;29;20236;-71
2022/11/04 11:01:53;;;;;;;1.10;1.00;;;;;;;13.42;70.41;100402.28;6052569;29;20236;-71
2022/11/04 11:05:23;;;;;;;1.60;1.50;;;;;;;14.85;65.62;100415.13;6045620;29;20245;-72
2022/11/04 11:09:12;;;;;;;1.30;1.20;;;;;;;14.59;65.68;100414.50;6055100;29;20236;-75
2022/11/04 11:12:49;;;;;;;1.33;1.07;;;;;;;16.49;59.73;100411.84;5950644;29;20808;-73
2022/11/04 11:16:12;;;;;;;1.05;0.95;;;;;;;16.35;58.47;100420.81;5989560;29;20280;-71
2022/11/04 11:19:45;;;;;;;0.88;0.88;;;;;;;17.74;55.55;100424.41;6053374;29;20750;-75
2022/11/04 11:23:33;;;;;;;1.75;1.48;;;;;;;20.99;48.59;100437.06;6040966;29;20243;-73
2022/11/04 11:26:56;;;;;;;1.90;0.90;;;;;;;20.24;47.16;100444.91;6043301;29;20245;-74
2022/11/04 11:30:28;;;;;;;0.73;0.73;;;;;;;20.26;48.05;100460.09;6038582;29;21017;-74
2022/11/04 11:33:52;;;;;;;0.70;0.70;;;;;;;17.84;52.99;100461.25;6049479;29;20249;-74
2022/11/04 11:37:23;;;;;;;1.48;0.70;;;;;;;18.71;51.65;100465.44;6056802;29;20229;-74
2022/11/04 11:40:45;;;;;;;0.98;0.73;;;;;;;18.05;53.78;100477.63;6048325;29;20241;-72
2022/11/04 11:44:18;;;;;;;1.95;0.73;;;;;;;15.70;60.71;100468.53;6049509;29;20237;-74
2022/11/04 11:47:41;;;;;;;3.75;1.27;;;;;;;19.68;49.47;100466.22;6051262;29;20241;-71
2022/11/04 11:51:02;;;;;;;1.38;0.85;;;;;;;20.54;47.64;100479.06;6061210;29;20326;-72
2022/11/04 11:54:32;;;;;;;1.33;1.33;;;;;;;18.44;51.53;100479.91;6053471;29;20239;-72
2022/11/04 11:58:03;;;;;;;0.40;0.40;;;;;;;16.23;58.64;100482.09;6046970;29;20253;-74
2022/11/04 12:01:30;;;;;;;1.85;0.82;;;;;;;16.05;59.03;100480.72;6050861;29;20249;-73
2022/11/04 12:04:53;;;;;;;1.85;0.82;;;;;;;15.04;62.59;100477.97;6064531;29;20233;-75
2022/11/04 12:08:39;;;;;;;1.90;1.73;;;;;;;14.75;63.29;100480.44;6055290;29;20240;-76
2022/11/04 12:12:15;;;;;;;2.13;0.77;;;;;;;14.53;63.84;100491.16;6052714;29;20229;-72
2022/11/04 12:15:52;;;;;;;2.53;0.70;;;;;;;15.32;61.46;100477.53;6058211;29;20755;-72
2022/11/04 12:19:44;;;;;;;1.40;0.60;;;;;;;14.59;64.38;100488.59;6059579;29;20265;-72
2022/11/04 12:23:16;;;;;;;3.50;1.53;;;;;;;14.17;65.10;100487.91;6052079;29;20232;-75
2022/11/04 12:26:45;;;;;;;0.60;0.60;;;;;;;13.36;68.43;100487.72;6053957;29;20244;-72
2022/11/04 12:30:12;;;;;;;0.83;0.70;;;;;;;13.55;68.65;100495.59;6062386;29;20245;-73
2022/11/04 12:33:40;;;;;;;1.03;0.77;;;;;;;13.54;68.55;100501.16;6054191;29;20229;-69
2022/11/04 12:37:18;;;;;;;6.70;0.80;;;;;;;13.43;69.65;100502.28;6045134;29;20876;-75
2022/11/04 12:40:45;;;;;;;4.17;1.00;;;;;;;14.60;66.08;100506.59;6060613;29;20508;-72
2022/11/04 12:44:20;;;;;;;2.13;0.97;;;;;;;15.50;62.73;100492.59;6047896;29;20738;-74
2022/11/04 12:47:44;;;;;;;1.27;0.90;;;;;;;15.76;62.01;100498.59;6030197;29;20237;-75
2022/11/04 12:51:11;;;;;;;1.63;0.67;;;;;;;15.50;61.25;100502.63;6037662;29;20233;-74
2022/11/04 12:54:50;;;;;;;0.80;0.70;;;;;;;14.99;63.37;100502.09;6031710;29;20237;-73
2022/11/04 12:58:29;;;;;;;1.07;0.73;;;;;;;14.71;63.33;100510.78;6038981;29;20234;-74
2022/11/04 13:01:54;;;;;;;1.37;0.80;;;;;;;14.73;63.44;100516.88;6059168;29;20296;-82
2022/11/04 13:05:28;;;;;;;3.40;0.60;;;;;;;14.21;64.90;100521.78;6062969;29;21060;-79
2022/11/04 13:08:53;;;;;;;1.30;0.57;;;;;;;14.31;64.55;100514.38;6045675;29;20261;-74
2022/11/04 13:12:18;;;;;;;8.03;2.20;;;;;;;14.41;64.37;100515.06;6057712;29;20608;-74
2022/11/04 13:15:46;;;;;;;2.40;0.90;;;;;;;14.08;65.84;100526.88;6057631;29;20257;-74
2022/11/04 13:19:20;;;;;;;0.70;0.70;;;;;;;14.19;65.57;100527.38;6043145;29;20252;-75
2022/11/04 13:22:45;;;;;;;1.03;1.03;;;;;;;14.29;65.12;100533.53;6043055;29;20685;-70
2022/11/04 13:26:10;;;;;;;0.83;0.50;;;;;;;13.83;66.46;100527.84;6061489;29;20241;-76
2022/11/04 13:29:35;;;;;;;1.73;0.80;;;;;;;13.65;67.17;100541.50;6064303;29;20236;-76
2022/11/04 13:33:02;;;;;;;3.80;1.20;;;;;;;13.76;67.21;100552.03;6048255;29;20237;-75
2022/11/04 13:36:30;;;;;;;1.33;0.63;;;;;;;13.28;68.89;100555.38;6051402;29;20241;-76
2022/11/04 13:39:57;;;;;;;3.27;1.37;;;;;;;13.46;68.70;100555.28;6054192;29;20327;-76
2022/11/04 13:43:41;;;;;;;1.33;1.03;;;;;;;13.75;67.90;100563.88;6037067;29;20249;-76
2022/11/04 13:47:05;;;;;;;1.17;0.87;;;;;;;14.03;67.25;100559.03;6051256;29;20253;-76
2022/11/04 13:50:32;;;;;;;1.50;1.03;;;;;;;13.97;67.19;100574.13;6056516;29;20253;-75
2022/11/04 13:53:56;;;;;;;0.50;0.50;;;;;;;14.14;67.08;100583.13;6043840;29;20232;-76
2022/11/04 13:57:20;;;;;;;6.83;0.97;;;;;;;13.99;67.24;100576.66;6053709;29;20324;-76
2022/11/04 14:01:01;;;;;;;3.20;1.27;;;;;;;13.45;68.41;100597.78;6060852;29;20241;-77
2022/11/04 14:04:29;;;;;;;0.80;0.60;;;;;;;13.57;68.43;100596.50;6055137;29;20315;-77
2022/11/04 14:08:12;;;;;;;4.03;2.23;;;;;;;13.56;68.36;100602.03;6050704;29;20323;-77
2022/11/04 14:12:12;;;;;;;2.80;0.90;;;;;;;13.58;68.60;100610.84;6061683;29;21395;-75
2022/11/04 14:16:02;;;;;;;2.63;0.90;;;;;;;13.79;68.91;100613.19;6052576;29;20233;-76
2022/11/04 14:19:57;;;;;;;0.53;0.53;;;;;;;13.88;67.83;100623.03;6039031;29;20229;-76
2022/11/04 14:23:23;;;;;;;3.37;1.30;;;;;;;13.75;68.33;100619.94;6055295;29;20248;-77
2022/11/04 14:26:47;;;;;;;2.37;1.43;;;;;;;13.68;68.21;100616.16;6062145;29;20229;-74
2022/11/04 14:30:31;;;;;;;6.23;2.87;;;;;;;13.74;68.30;100623.66;6060457;29;20268;-77
2022/11/04 14:33:56;;;;;;;4.67;2.07;;;;;;;13.69;67.79;100617.84;6056256;29;20245;-76
2022/11/04 14:37:21;;;;;;;3.07;1.37;;;;;;;13.66;67.86;100626.31;6064209;29;21941;-76
2022/11/04 14:40:49;;;;;;;1.53;1.03;;;;;;;13.58;68.12;100625.25;6048611;29;20226;-76
2022/11/04 14:44:21;;;;;;;3.63;3.33;;;;;;;13.51;68.76;100624.22;6058494;29;20781;-76
2022/11/04 14:47:43;;;;;;;1.73;1.60;;;;;;;13.59;68.28;100628.81;6041372;29;20315;-77
2022/11/04 14:51:05;;;;;;;1.70;1.50;;;;;;;13.65;73.51;100630.88;6053286;29;20245;-77
2022/11/04 14:54:31;;;;;;;2.70;1.83;;;;;;;13.90;68.68;100638.09;6055262;29;20337;-76
2022/11/04 14:57:54;;;;;;;4.87;3.23;;;;;;;13.72;68.45;100652.75;6049023;29;20573;-76
2022/11/04 15:01:16;;;;;;;3.63;3.30;;;;;;;13.61;69.07;100646.63;6057847;29;20320;-75
2022/11/04 15:04:37;;;;;;;2.07;1.90;;;;;;;13.52;68.99;100649.44;6049155;29;20233;-79
2022/11/04 15:08:00;;;;;;;9.20;6.33;;;;;;;13.47;68.83;100652.63;6071320;29;20613;-80
2022/11/04 15:14:59;;;;;;;3.20;1.97;;;;;;;13.47;69.16;100649.94;6042942;29;20936;-81
2022/11/04 15:18:23;;;;;;;3.03;1.90;;;;;;;13.44;69.37;100652.94;6059605;29;20538;-78
2022/11/04 15:21:48;;;;;;;1.00;0.73;;;;;;;13.38;69.28;100658.16;6066467;29;20261;-82
2022/11/04 15:25:12;;;;;;;2.57;1.70;;;;;;;13.24;70.62;100664.16;6049056;29;20229;-79
2022/11/04 15:28:38;;;;;;;1.43;1.17;;;;;;;13.16;70.94;100664.09;6074727;29;20355;-79
2022/11/04 15:32:01;;;;;;;3.23;0.90;;;;;;;12.94;70.82;100668.09;6064577;29;20225;-78
2022/11/04 15:35:23;;;;;;;1.90;0.90;;;;;;;12.94;70.98;100678.06;6058990;29;20241;-80
2022/11/04 15:38:49;;;;;;;2.37;0.80;;;;;;;12.89;71.46;100688.53;6059057;29;20225;-80
2022/11/04 15:45:56;;;;;;;3.30;1.67;;;;;;;12.80;70.38;100704.69;6064738;29;20225;-78
2022/11/04 15:49:24;;;;;;;3.27;1.60;;;;;;;12.76;70.74;100708.72;6072338;29;20236;-81
2022/11/04 15:52:52;;;;;;;2.50;0.90;;;;;;;12.80;70.45;100711.94;6054863;29;20268;-80
2022/11/04 15:56:15;;;;;;;2.70;1.10;;;;;;;12.84;70.89;100714.19;6069193;29;20233;-79
2022/11/04 15:59:38;;;;;;;5.03;1.33;;;;;;;12.80;71.05;100715.50;6069621;29;20240;-81
2022/11/04 16:03:00;;;;;;;1.80;0.73;;;;;;;12.64;71.75;100719.91;6052714;29;20324;-80
2022/11/04 16:06:36;;;;;;;2.17;1.50;;;;;;;12.70;72.40;100725.53;6067954;29;20238;-79
2022/11/04 16:09:57;;;;;;;10.50;4.87;;;;;;;12.67;72.55;100731.25;6053617;29;20237;-81
2022/11/04 16:13:23;;;;;;;4.17;3.13;;;;;;;12.56;73.96;100728.78;6049882;29;20315;-80
2022/11/04 16:16:49;;;;;;;3.30;2.07;;;;;;;12.55;73.13;100740.59;6052841;29;20222;-81
2022/11/04 16:20:17;;;;;;;2.03;1.43;;;;;;;12.65;73.16;100744.09;6061843;29;20241;-81
2022/11/04 16:23:44;;;;;;;3.97;1.97;;;;;;;12.70;72.67;100735.53;6062305;29;20235;-80
2022/11/04 16:27:08;;;;;;;2.93;1.93;;;;;;;12.71;72.52;100745.31;6061317;29;20238;-81
2022/11/04 16:30:30;;;;;;;5.70;3.37;;;;;;;12.69;72.22;100741.91;6054116;29;20498;-81
2022/11/04 16:33:52;;;;;;;8.20;3.60;;;;;;;12.69;72.52;100750.91;6054095;29;20252;-80
2022/11/04 16:37:13;;;;;;;3.57;1.93;;;;;;;12.57;73.01;100762.06;6067058;29;20539;-83